Hovedside
METAR-TAF:

METAR-TAF

Lufthavner :

Moss lufthavn. Rygge

Rygge, Norge

breddegrad: 59-23N, lengdegrad: 010-47E, høyde over havet: 5 m

Gjeldene værobservasjon

Denne rapporten ble laget for 39 minutter siden, klokken 05:50 UTC
Vind 4 kt fra Nordøst
Temperatur 2°C
Luftfuktighet 100%
Trykk 1021 hPa
Sikt: 0250 m
tåke

METAR: ENRY 150550Z AUTO 04004KT 0250NDV R12/1600N R30/P2000N FG VV002 02/02 Q1021

Tid: 07:29 (06:29 UTC)

Varsel

Varsel gyldig fra 15. klokken 06 UTC til 16. klokken 06 UTC
Vind 5 kt fra Nord-nordøst
Sikt: 0300 m
i en høyde av 100 ft
tåke
Midlertidig
fra 15. klokken 06 UTC til 15. klokken 12 UTC
Sikt: 3000 m
Overskyet i en høyde av 300 ft
dis
Blir
fra 15. klokken 12 UTC til 15. klokken 14 UTC
Få skyer i en høyde av 1000 ft
Brutte skyer i en høyde av 2000 ft

TAF: ENRY 1506/1606 03005KT 0300 FG VV001 TEMPO 1506/1512 3000 BR OVC003 BECMG 1512/1514 FEW010 BKN020

Værobservasjoner og værvarsel for over 4000 flyplasser (METAR- og TAF-rapporter).

Tilgjengelige stasjoner er representert av de røde og gule prikkene på kartet.

Hold musepekeren over prikken for å se navnet på stasjonen.

Klikk så for å se værobservasjoner og -varsler.

For å forandre kartet kan du klikke på den grønne knappen med svart kryss for å zoome inn, på den grønne knappen med strek for å zoome ut, eller på de grønne pilene for å se tilstøtende kart.


METAR-TAF: